Kaiwo Maru — JMMU — position and weather

sailwx.info

Track history (hours):
 
Tides and Currents Weather Stations Pressure Air Temp Water Temp Dewpoint Dewpoint Depression Visibility Wind Speed Wind Dir Waves Ship Positions

Kaiwo Maru (Japan)

Built in 1989. Trains merchant marine cadets for Japan's National Institute for Sea Training.

Ship's website: http://www.kohkun.go.jp/en/ships/kaiwomaru.html

Last reported at 2018-Jul-16 11:29 UTC. Time now 2018-Aug-14 07:04 UTC.
Position N 34°24' E 134°21'.
Warning: this ship's position is 28 days out of date.

Length 110.1 m; beam 13.8 m; draft 6 m.

Type: Sailing vessel. MMSI: 431006000.

Date/timePositionNaut miles runAvg speedWind from/ knotsBaromVisibWave heightAir tempDewpointWater temp
2018-Jul-16 11:29N 34°24' E 134°21'510.6
2018-Jul-16 11:00N 34°26' E 134°26'510.3
2018-Jul-16 10:31N 34°28' E 134°32'5 9.7
2018-Jul-16 10:01N 34°30' E 134°37'5 9.7
2018-Jul-16 09:28N 34°32' E 134°43'4 9.5
2018-Jul-16 09:00N 34°34' E 134°48'7 8.3
2018-Jul-16 08:09N 34°36' E 134°56'3 7.0
2018-Jul-16 07:43N 34°38' E 134°60'1 5.2
2018-Jul-16 07:27N 34°37' E 135°01'2 4.7
2018-Jul-16 06:58N 34°36' E 135°03'3 5.5
2018-Jul-16 06:30N 34°36' E 135°07'4 8.1
2018-Jul-16 06:00N 34°38' E 135°11'3 5.4
2018-Jul-16 05:30N 34°41' E 135°12'0 0.0
2018-Jul-16 04:50N 34°41' E 135°12'0 0.0
2018-Jul-16 04:20N 34°41' E 135°12'0 0.0
2018-Jul-16 03:56N 34°41' E 135°12'0 0.0
2018-Jul-16 03:26N 34°41' E 135°12'0 0.0
2018-Jul-16 02:56N 34°41' E 135°12'0 0.0
2018-Jul-16 02:26N 34°41' E 135°12'0 0.0
2018-Jul-16 01:56N 34°41' E 135°12'0 0.0
2018-Jul-16 01:20N 34°41' E 135°12'0 0.0
2018-Jul-16 00:56N 34°41' E 135°12'0 0.0
2018-Jul-16 00:26N 34°41' E 135°12'0 0.0
2018-Jul-15 23:50N 34°41' E 135°12'0 0.0
2018-Jul-15 23:08N 34°41' E 135°12'0 0.0
2018-Jul-15 22:50N 34°41' E 135°12'0 0.0
2018-Jul-15 22:26N 34°41' E 135°12'0 0.0
2018-Jul-15 21:56N 34°41' E 135°12'0 0.0
2018-Jul-15 20:38N 34°41' E 135°12'0 0.0
2018-Jul-15 20:20N 34°41' E 135°12'0 0.0
2018-Jul-15 19:56N 34°41' E 135°12'0 0.0
2018-Jul-15 19:26N 34°41' E 135°12'0 0.0
2018-Jul-15 18:56N 34°41' E 135°12'0 0.0
2018-Jul-15 18:26N 34°41' E 135°12'0 0.0
2018-Jul-15 17:56N 34°41' E 135°12'0 0.0
2018-Jul-15 17:26N 34°41' E 135°12'0 0.0
2018-Jul-15 16:56N 34°41' E 135°12'0 0.0
2018-Jul-15 15:56N 34°41' E 135°12'0 0.0
2018-Jul-15 15:26N 34°41' E 135°12'0 0.0
2018-Jul-15 14:44N 34°41' E 135°12'0 0.0
2018-Jul-15 14:20N 34°41' E 135°12'0 0.0
2018-Jul-15 13:50N 34°41' E 135°12'0 0.0
2018-Jul-15 13:26N 34°41' E 135°12'0 0.0
2018-Jul-15 12:50N 34°41' E 135°12'0 0.0
2018-Jul-15 12:26N 34°41' E 135°12'0 0.0
2018-Jul-15 11:56N 34°41' E 135°12'0 0.0
2018-Jul-15 11:14N 34°41' E 135°12'0 0.0
2018-Jul-15 10:56N 34°41' E 135°12'0 0.0
2018-Jul-15 10:20N 34°41' E 135°12'0 0.0
2018-Jul-15 09:56N 34°41' E 135°12'0 0.0
2018-Jul-15 09:20N 34°41' E 135°12'0 0.0
2018-Jul-15 08:50N 34°41' E 135°12'0 0.0
2018-Jul-15 08:26N 34°41' E 135°12'0 0.0
2018-Jul-15 07:56N 34°41' E 135°12'0 0.0
2018-Jul-15 07:20N 34°41' E 135°12'0 0.0
2018-Jul-15 06:56N 34°41' E 135°12'0 0.0
2018-Jul-15 06:26N 34°41' E 135°12'0 0.0
2018-Jul-15 05:56N 34°41' E 135°12'0 0.0
2018-Jul-15 05:14N 34°41' E 135°12'0 0.0
2018-Jul-15 04:50N 34°41' E 135°12'0 0.0
2018-Jul-15 04:20N 34°41' E 135°12'0 0.0
2018-Jul-15 03:56N 34°41' E 135°12'0 0.0
2018-Jul-15 03:14N 34°41' E 135°12'0 0.0
2018-Jul-15 02:56N 34°41' E 135°12'0 0.0
2018-Jul-15 02:20N 34°41' E 135°12'0 0.0
2018-Jul-15 01:56N 34°41' E 135°12'0 0.0
2018-Jul-15 01:26N 34°41' E 135°12'0 0.0
2018-Jul-15 00:56N 34°41' E 135°12'0 0.0
2018-Jul-15 00:26N 34°41' E 135°12'0 0.0
2018-Jul-14 23:56N 34°41' E 135°12'0 0.0
2018-Jul-14 23:26N 34°41' E 135°12'0 0.0
2018-Jul-14 22:56N 34°41' E 135°12'0 0.0
2018-Jul-14 22:26N 34°41' E 135°12'0 0.0
2018-Jul-14 21:56N 34°41' E 135°12'0 0.0
2018-Jul-14 21:26N 34°41' E 135°12'0 0.0
2018-Jul-14 20:50N 34°41' E 135°12'0 0.0
2018-Jul-14 20:26N 34°41' E 135°12'0 0.0
2018-Jul-14 19:56N 34°41' E 135°12'0 0.0
2018-Jul-14 19:26N 34°41' E 135°12'0 0.0
2018-Jul-14 18:56N 34°41' E 135°12'0 0.0
2018-Jul-14 18:14N 34°41' E 135°12'0 0.0
2018-Jul-14 17:56N 34°41' E 135°12'0 0.0
2018-Jul-14 17:26N 34°41' E 135°12'0 0.0
2018-Jul-14 16:56N 34°41' E 135°12'0 0.0
2018-Jul-14 16:20N 34°41' E 135°12'0 0.0
2018-Jul-14 15:56N 34°41' E 135°12'0 0.0
2018-Jul-14 15:26N 34°41' E 135°12'0 0.0
2018-Jul-14 14:50N 34°41' E 135°12'0 0.0
2018-Jul-14 14:26N 34°41' E 135°12'0 0.0
2018-Jul-14 13:26N 34°41' E 135°12'0 0.0
2018-Jul-14 12:56N 34°41' E 135°12'0 0.0
2018-Jul-14 12:14N 34°41' E 135°12'0 0.0
2018-Jul-14 11:56N 34°41' E 135°12'0 0.0
2018-Jul-14 11:26N 34°41' E 135°12'0 0.0
2018-Jul-14 10:50N 34°41' E 135°12'0 0.0
2018-Jul-14 10:20N 34°41' E 135°12'0 0.0
2018-Jul-14 09:50N 34°41' E 135°12'0 0.0
2018-Jul-14 09:26N 34°41' E 135°12'0 0.0
2018-Jul-14 08:56N 34°41' E 135°12'0 0.0
2018-Jul-14 08:20N 34°41' E 135°12'0 0.0
2018-Jul-14 07:56N 34°41' E 135°12'0 0.0
2018-Jul-14 07:26N 34°41' E 135°12'0 0.0
2018-Jul-14 06:56N 34°41' E 135°12'0 0.0
2018-Jul-14 06:02N 34°41' E 135°12'0 0.1
2018-Jul-14 05:56N 34°41' E 135°12'0 0.0
2018-Jul-14 05:14N 34°41' E 135°12'0 0.0
2018-Jul-14 04:56N 34°41' E 135°12'0 0.0
2018-Jul-14 04:02N 34°41' E 135°12'0 0.0
2018-Jul-14 03:56N 34°41' E 135°12'0 0.0
2018-Jul-14 03:26N 34°41' E 135°12'0 0.0
2018-Jul-14 02:50N 34°41' E 135°12'0 0.0
2018-Jul-14 02:20N 34°41' E 135°12'0 0.0
2018-Jul-14 01:56N 34°41' E 135°12'0 0.0
2018-Jul-14 01:26N 34°41' E 135°12'0 0.0
2018-Jul-14 00:08N 34°41' E 135°12'0 0.0
2018-Jul-13 23:50N 34°41' E 135°12'0 0.0
2018-Jul-13 23:26N 34°41' E 135°12'0 0.0
2018-Jul-13 22:56N 34°41' E 135°12'0 0.0
2018-Jul-13 22:26N 34°41' E 135°12'0 0.0
2018-Jul-13 21:50N 34°41' E 135°12'0 0.0
2018-Jul-13 21:26N 34°41' E 135°12'0 0.0
2018-Jul-13 20:56N 34°41' E 135°12'0 0.0
2018-Jul-13 20:26N 34°41' E 135°12'0 0.0
2018-Jul-13 19:44N 34°41' E 135°12'0 0.0
2018-Jul-13 19:26N 34°41' E 135°12'0 0.0
2018-Jul-13 18:56N 34°41' E 135°12'0 0.0
2018-Jul-13 18:20N 34°41' E 135°12'0 0.0
2018-Jul-13 17:56N 34°41' E 135°12'0 0.0
2018-Jul-13 17:20N 34°41' E 135°12'0 0.0
2018-Jul-13 16:56N 34°41' E 135°12'0 0.0
2018-Jul-13 16:26N 34°41' E 135°12'0 0.0
2018-Jul-13 15:56N 34°41' E 135°12'0 0.0
2018-Jul-13 15:20N 34°41' E 135°12'0 0.0
2018-Jul-13 14:56N 34°41' E 135°12'0 0.0
2018-Jul-13 13:50N 34°41' E 135°12'0 0.0
2018-Jul-13 13:26N 34°41' E 135°12'0 0.0
2018-Jul-13 12:56N 34°41' E 135°12'0 0.0
2018-Jul-13 12:26N 34°41' E 135°12'0 0.0
2018-Jul-13 11:56N 34°41' E 135°12'0 0.0
2018-Jul-13 11:26N 34°41' E 135°12'0 0.0
2018-Jul-13 10:50N 34°41' E 135°12'0 0.0
2018-Jul-13 10:20N 34°41' E 135°12'0 0.0
2018-Jul-13 09:56N 34°41' E 135°12'0 0.0
2018-Jul-13 09:20N 34°41' E 135°12'0 0.0
2018-Jul-13 08:56N 34°41' E 135°12'0 0.0
2018-Jul-13 08:26N 34°41' E 135°12'0 0.0
2018-Jul-13 07:56N 34°41' E 135°12'0 0.0
2018-Jul-13 07:20N 34°41' E 135°12'0 0.0
2018-Jul-13 06:56N 34°41' E 135°12'0 0.0
2018-Jul-13 06:26N 34°41' E 135°12'0 0.0
2018-Jul-13 05:50N 34°41' E 135°12'0 0.0
2018-Jul-13 05:20N 34°41' E 135°12'0 0.0
2018-Jul-13 04:56N 34°41' E 135°12'0 0.0
2018-Jul-13 04:26N 34°41' E 135°12'0 0.0
2018-Jul-13 03:50N 34°41' E 135°12'0 0.0
2018-Jul-13 03:26N 34°41' E 135°12'0 0.0
2018-Jul-13 02:56N 34°41' E 135°12'0 0.0
2018-Jul-13 02:26N 34°41' E 135°12'0 0.0
2018-Jul-13 01:56N 34°41' E 135°12'0 0.0
2018-Jul-13 01:26N 34°41' E 135°12'0 0.0
2018-Jul-13 00:50N 34°41' E 135°12'0 0.0
2018-Jul-13 00:26N 34°41' E 135°12'0 0.0
2018-Jul-12 23:50N 34°41' E 135°12'0 0.0
2018-Jul-12 23:20N 34°41' E 135°12'0 0.0
2018-Jul-12 22:50N 34°41' E 135°12'0 0.0
2018-Jul-12 22:20N 34°41' E 135°12'0 0.0
2018-Jul-12 21:44N 34°41' E 135°12'0 0.0
2018-Jul-12 21:26N 34°41' E 135°12'0 0.0
2018-Jul-12 20:56N 34°41' E 135°12'0 0.0
2018-Jul-12 20:26N 34°41' E 135°12'0 0.0
2018-Jul-12 19:56N 34°41' E 135°12'0 0.0
2018-Jul-12 19:26N 34°41' E 135°12'0 0.0
2018-Jul-12 18:56N 34°41' E 135°12'0 0.0
2018-Jul-12 18:26N 34°41' E 135°12'0 0.0
2018-Jul-12 17:44N 34°41' E 135°12'0 0.0
2018-Jul-12 17:26N 34°41' E 135°12'0 0.0
2018-Jul-12 16:56N 34°41' E 135°12'0 0.0
2018-Jul-12 16:20N 34°41' E 135°12'0 0.0
2018-Jul-12 15:38N 34°41' E 135°12'0 0.0
2018-Jul-12 15:20N 34°41' E 135°12'0 0.0
2018-Jul-12 14:56N 34°41' E 135°12'0 0.0
2018-Jul-12 14:26N 34°41' E 135°12'0 0.0
2018-Jul-12 13:50N 34°41' E 135°12'0 0.0
2018-Jul-12 13:20N 34°41' E 135°12'0 0.1
2018-Jul-12 12:50N 34°41' E 135°12'0 0.1
2018-Jul-12 12:26N 34°41' E 135°12'0 0.0
2018-Jul-12 11:56N 34°41' E 135°12'0 0.0
2018-Jul-12 11:26N 34°41' E 135°12'0 0.0
2018-Jul-12 10:56N 34°41' E 135°12'0 0.0
2018-Jul-12 10:26N 34°41' E 135°12'0 0.0
2018-Jul-12 09:56N 34°41' E 135°12'0 0.0
2018-Jul-12 09:26N 34°41' E 135°12'0 0.0
2018-Jul-12 08:50N 34°41' E 135°12'0 0.0
2018-Jul-12 08:26N 34°41' E 135°12'0 0.0
2018-Jul-12 07:44N 34°41' E 135°12'0 0.0
2018-Jul-12 07:26N 34°41' E 135°12'0 0.0
2018-Jul-12 06:56N 34°41' E 135°12'0 0.0
2018-Jul-12 06:26N 34°41' E 135°12'0 0.0
2018-Jul-12 05:56N 34°41' E 135°12'0 0.0
2018-Jul-12 05:20N 34°41' E 135°12'0 0.0
2018-Jul-12 04:50N 34°41' E 135°12'0 0.0
2018-Jul-12 04:26N 34°41' E 135°12'0 0.0
2018-Jul-12 03:50N 34°41' E 135°12'0 0.0
2018-Jul-12 03:26N 34°41' E 135°12'0 0.0
2018-Jul-12 02:44N 34°41' E 135°12'0 0.0
2018-Jul-12 02:20N 34°41' E 135°12'0 0.0
2018-Jul-12 01:44N 34°41' E 135°12'0 0.0
2018-Jul-12 01:20N 34°41' E 135°12'0 0.0
2018-Jul-12 00:56N 34°41' E 135°12'0 0.0
2018-Jul-12 00:26N 34°41' E 135°12'0 0.0
2018-Jul-11 23:56N 34°41' E 135°12'0 0.0
2018-Jul-11 22:44N 34°41' E 135°12'0 0.0
2018-Jul-11 22:26N 34°41' E 135°12'0 0.0
2018-Jul-11 21:50N 34°41' E 135°12'0 0.0
2018-Jul-11 21:26N 34°41' E 135°12'0 0.0
2018-Jul-11 20:56N 34°41' E 135°12'0 0.0
2018-Jul-11 20:20N 34°41' E 135°12'0 0.0
2018-Jul-11 19:56N 34°41' E 135°12'0 0.0
2018-Jul-11 19:26N 34°41' E 135°12'0 0.0
2018-Jul-11 18:56N 34°41' E 135°12'0 0.0
2018-Jul-11 18:26N 34°41' E 135°12'0 0.0
2018-Jul-11 17:56N 34°41' E 135°12'0 0.0
2018-Jul-11 17:20N 34°41' E 135°12'0 0.0
2018-Jul-11 16:50N 34°41' E 135°12'0 0.0
2018-Jul-11 16:26N 34°41' E 135°12'0 0.0
2018-Jul-11 15:56N 34°41' E 135°12'0 0.0
2018-Jul-11 15:20N 34°41' E 135°12'0 0.0
2018-Jul-11 14:56N 34°41' E 135°12'0 0.0
2018-Jul-11 14:26N 34°41' E 135°12'0 0.0
2018-Jul-11 13:50N 34°41' E 135°12'0 0.0
2018-Jul-11 13:26N 34°41' E 135°12'0 0.0
2018-Jul-11 12:56N 34°41' E 135°12'0 0.0
2018-Jul-11 12:26N 34°41' E 135°12'0 0.0
2018-Jul-11 11:50N 34°41' E 135°12'0 0.0
2018-Jul-11 11:26N 34°41' E 135°12'0 0.0
2018-Jul-11 10:50N 34°41' E 135°12'0 0.0
2018-Jul-11 10:14N 34°41' E 135°12'0 0.0
2018-Jul-11 09:56N 34°41' E 135°12'0 0.0
2018-Jul-11 09:14N 34°41' E 135°12'0 0.0
2018-Jul-11 08:56N 34°41' E 135°12'0 0.0
2018-Jul-11 08:26N 34°41' E 135°12'0 0.0
2018-Jul-11 07:50N 34°41' E 135°12'0 0.0
2018-Jul-11 07:14N 34°41' E 135°12'0 0.0
2018-Jul-11 06:56N 34°41' E 135°12'0 0.0
2018-Jul-11 06:20N 34°41' E 135°12'0 0.0
2018-Jul-11 05:56N 34°41' E 135°12'0 0.0
2018-Jul-11 05:26N 34°41' E 135°12'0 0.0
2018-Jul-11 04:56N 34°41' E 135°12'0 0.0
2018-Jul-11 04:29N 34°41' E 135°12'0 0.0
2018-Jul-11 03:59N 34°41' E 135°12'0 0.0
2018-Jul-11 03:23N 34°41' E 135°12'0 0.0
2018-Jul-11 02:53N 34°41' E 135°12'0 0.0
2018-Jul-11 02:17N 34°41' E 135°12'0 0.0
2018-Jul-11 01:59N 34°41' E 135°12'0 0.0
2018-Jul-11 01:29N 34°41' E 135°12'0 0.2
2018-Jul-11 01:00N 34°41' E 135°12'3 5.7
2018-Jul-11 00:30N 34°38' E 135°11'2 2.7
2018-Jul-10 23:57N 34°37' E 135°12'0 0.1
2018-Jul-10 23:15N 34°37' E 135°12'0 0.0
2018-Jul-10 22:57N 34°37' E 135°12'0 0.0
2018-Jul-10 21:33N 34°37' E 135°12'0 0.1
2018-Jul-10 21:27N 34°37' E 135°12'0 0.0
2018-Jul-10 20:51N 34°37' E 135°12'0 0.0
2018-Jul-10 20:09N 34°37' E 135°12'0 0.0
2018-Jul-10 19:57N 34°37' E 135°12'0 0.0
2018-Jul-10 19:27N 34°37' E 135°12'0 0.0
2018-Jul-10 18:51N 34°37' E 135°12'0 0.0
2018-Jul-10 18:27N 34°37' E 135°12'0 0.1
2018-Jul-10 17:45N 34°37' E 135°12'0 0.0
2018-Jul-10 17:27N 34°37' E 135°12'0 0.0
2018-Jul-10 17:00N 34°37' E 135°12'0 0.0
2018-Jul-10 16:27N 34°37' E 135°12'0 0.1
2018-Jul-10 15:57N 34°37' E 135°12'0 0.1
2018-Jul-10 15:27N 34°37' E 135°12'0 0.0
2018-Jul-10 14:57N 34°37' E 135°12'0 0.1
2018-Jul-10 14:27N 34°37' E 135°12'0 0.0
2018-Jul-10 13:57N 34°37' E 135°12'0 0.1
2018-Jul-10 13:09N 34°37' E 135°12'0 0.0
2018-Jul-10 13:00N 34°37' E 135°12'0 0.1
2018-Jul-10 12:30N 34°37' E 135°12'0 0.0
2018-Jul-10 11:57N 34°37' E 135°12'0 0.0
2018-Jul-10 11:15N 34°37' E 135°12'0 0.0
2018-Jul-10 10:57N 34°37' E 135°12'0 0.0
2018-Jul-10 10:30N 34°37' E 135°12'0 0.0
2018-Jul-10 10:00N 34°37' E 135°12'0 0.0
2018-Jul-10 09:30N 34°37' E 135°12'0 0.5
2018-Jul-10 09:00N 34°37' E 135°12'2 4.7
2018-Jul-10 08:30N 34°35' E 135°15'3 6.0
2018-Jul-10 08:00N 34°34' E 135°11'4 8.1
2018-Jul-10 07:31N 34°32' E 135°08'4 8.5
2018-Jul-10 07:01N 34°28' E 135°05'4 8.9
2018-Jul-10 06:31N 34°24' E 135°03'5 9.7
2018-Jul-10 06:01N 34°19' E 135°00'510.0
2018-Jul-10 05:31N 34°14' E 134°59'5 9.4
2018-Jul-10 05:01N 34°10' E 134°59'5 9.4
2018-Jul-10 04:31N 34°05' E 134°59'510.0
2018-Jul-10 04:00N 34°00' E 134°59'510.0
2018-Jul-10 03:31N 33°55' E 134°59'234 8.8
2018-Jul-09 00:55N 34°57' E 139°33'2 4.9
2018-Jul-09 00:30N 34°57' E 139°36'3 5.2
2018-Jul-09 00:00N 34°58' E 139°39'3 5.6
2018-Jul-08 23:30N 34°59' E 139°42'3 6.3
2018-Jul-08 23:00N 35°00' E 139°45'4 7.9
2018-Jul-08 22:30N 35°00' E 139°50'1 0.8
2018-Jul-08 21:45N 34°60' E 139°51'0 0.1
2018-Jul-08 21:09N 34°60' E 139°50'0 0.0
2018-Jul-08 20:21N 35°00' E 139°50'0 0.0
2018-Jul-08 19:57N 35°00' E 139°50'0 0.0
2018-Jul-08 19:27N 34°60' E 139°50'0 0.1
2018-Jul-08 18:57N 34°60' E 139°50'0 0.1
2018-Jul-08 18:27N 34°60' E 139°50'0 0.0
2018-Jul-08 17:57N 34°60' E 139°50'0 0.1
2018-Jul-08 17:21N 35°00' E 139°51'0 0.0
2018-Jul-08 16:21N 35°00' E 139°50'0 0.0
2018-Jul-08 15:57N 35°00' E 139°50'0 0.0
2018-Jul-08 15:27N 35°00' E 139°50'0 0.0
2018-Jul-08 14:57N 35°00' E 139°50'0 0.0
2018-Jul-08 14:27N 35°00' E 139°50'0 0.0
2018-Jul-08 13:57N 35°00' E 139°50'0 0.0
2018-Jul-08 13:27N 35°00' E 139°50'0 0.0
2018-Jul-08 12:51N 35°00' E 139°50'0 0.1
2018-Jul-08 12:27N 35°00' E 139°51'0 0.1
2018-Jul-08 11:57N 35°00' E 139°50'0 0.0
2018-Jul-08 11:27N 35°00' E 139°50'0 0.1
2018-Jul-08 10:45N 35°00' E 139°51'0 0.2
2018-Jul-08 10:27N 34°60' E 139°50'0 0.0
2018-Jul-08 09:57N 35°00' E 139°50'0 0.0
2018-Jul-08 09:27N 35°00' E 139°50'0 0.1
2018-Jul-08 08:57N 35°00' E 139°51'0 0.0
2018-Jul-08 08:27N 35°00' E 139°51'0 0.1
2018-Jul-08 07:51N 35°00' E 139°50'0 0.1
2018-Jul-08 07:27N 34°60' E 139°51'0 0.0
2018-Jul-08 06:57N 34°60' E 139°51'0 0.0
2018-Jul-08 06:27N 35°00' E 139°51'0 0.0
2018-Jul-08 05:09N 35°00' E 139°51'0 0.1
2018-Jul-08 04:57N 35°00' E 139°51'0 0.1
2018-Jul-08 04:27N 35°00' E 139°51'0 0.0
2018-Jul-08 03:33N 35°00' E 139°51'0 0.0
2018-Jul-08 03:15N 35°00' E 139°51'0 0.0
2018-Jul-08 02:51N 35°00' E 139°51'0 0.0
2018-Jul-08 02:27N 35°00' E 139°51'0 0.0
2018-Jul-08 01:51N 35°00' E 139°51'0 0.0
2018-Jul-08 01:27N 35°00' E 139°51'0 0.0
2018-Jul-08 00:57N 35°00' E 139°51'0 0.0
2018-Jul-08 00:21N 35°00' E 139°51'0 0.0
2018-Jul-07 23:57N 35°00' E 139°51'0 0.0
2018-Jul-07 23:27N 35°00' E 139°51'0 0.0
2018-Jul-07 22:57N 35°00' E 139°51'0 0.0
2018-Jul-07 22:27N 35°00' E 139°51'0 0.0
2018-Jul-07 21:51N 35°00' E 139°51'0 0.0
2018-Jul-07 21:27N 35°00' E 139°51'0 0.0
2018-Jul-07 20:57N 35°00' E 139°51'0 0.0
2018-Jul-07 20:27N 35°00' E 139°51'0 0.0
2018-Jul-07 19:57N 35°00' E 139°51'0 0.1
2018-Jul-07 19:27N 35°00' E 139°51'0 0.0
2018-Jul-07 18:51N 35°00' E 139°51'0 0.0
2018-Jul-07 18:09N 35°00' E 139°51'0 0.1
2018-Jul-07 17:57N 35°00' E 139°51'0 0.0
2018-Jul-07 17:27N 35°00' E 139°51'0 0.0
2018-Jul-07 16:57N 35°00' E 139°51'0 0.0
2018-Jul-07 16:21N 35°00' E 139°51'0 0.0
2018-Jul-07 15:57N 35°00' E 139°51'0 0.0
2018-Jul-07 14:45N 35°00' E 139°51'0 0.0
2018-Jul-07 14:27N 35°00' E 139°51'0 0.0
2018-Jul-07 13:57N 35°00' E 139°51'0 0.0
2018-Jul-07 12:33N 35°00' E 139°51'0 0.0
2018-Jul-07 12:27N 35°00' E 139°51'0 0.0
2018-Jul-07 11:57N 35°00' E 139°51'0 0.0
2018-Jul-07 11:27N 35°00' E 139°51'0 0.0
2018-Jul-07 10:51N 35°00' E 139°51'0 0.0
2018-Jul-07 07:39N 35°00' E 139°51'0 0.1
2018-Jul-07 07:12N 35°00' E 139°51'0 0.2
2018-Jul-07 07:00N 35°00' E 139°51'0 0.0
2018-Jul-07 06:31N 35°00' E 139°51'0 0.0
2018-Jul-07 06:01N 35°00' E 139°51'0 0.0
2018-Jul-07 05:31N 35°00' E 139°51'0 0.0
2018-Jul-07 05:00N 35°00' E 139°51'0 0.0
2018-Jul-07 04:31N 35°00' E 139°51'0 0.0
2018-Jul-07 04:01N 35°00' E 139°51'0 0.0
2018-Jul-07 03:31N 35°00' E 139°51'0 0.0
2018-Jul-07 03:01N 35°00' E 139°51'0 0.0
2018-Jul-07 02:30N 35°00' E 139°51'0 0.0
2018-Jul-07 02:00N 35°00' E 139°51'0 0.0
2018-Jul-07 01:30N 35°00' E 139°51'0 0.0
2018-Jul-07 01:01N 35°00' E 139°51'0 0.0
2018-Jul-07 00:31N 35°00' E 139°51'0 0.0
2018-Jul-07 00:01N 35°00' E 139°51'0 0.0
2018-Jul-06 23:31N 35°00' E 139°51'0 0.0
2018-Jul-06 23:00N 35°00' E 139°51'0 0.0
2018-Jul-06 22:30N 35°00' E 139°51'0 0.0
2018-Jul-06 22:01N 35°00' E 139°51'0 0.1
2018-Jul-06 21:31N 35°00' E 139°51'0 0.1
2018-Jul-06 21:01N 35°00' E 139°51'0 0.0
2018-Jul-06 20:31N 35°00' E 139°51'0 0.0
2018-Jul-06 20:00N 35°00' E 139°51'0 0.0
2018-Jul-06 19:31N 35°00' E 139°51'0 0.0
2018-Jul-06 19:00N 35°00' E 139°51'0 0.0
2018-Jul-06 18:31N 35°00' E 139°51'0 0.0
2018-Jul-06 18:01N 35°00' E 139°51'0 0.0
2018-Jul-06 17:30N 35°00' E 139°51'0 0.0
2018-Jul-06 17:01N 35°00' E 139°51'0 0.0
2018-Jul-06 16:31N 35°00' E 139°51'0 0.0
2018-Jul-06 16:01N 35°00' E 139°51'0 0.0
2018-Jul-06 15:30N 35°00' E 139°51'0 0.0
2018-Jul-06 15:01N 35°00' E 139°51'0 0.0
2018-Jul-06 14:30N 35°00' E 139°51'0 0.0
2018-Jul-06 14:00N 35°00' E 139°51'0 0.0
2018-Jul-06 13:30N 35°00' E 139°51'0 0.0
2018-Jul-06 13:00N 35°00' E 139°51'0 0.0
2018-Jul-06 12:30N 35°00' E 139°51'0 0.0
2018-Jul-06 12:00N 35°00' E 139°51'0 0.0
2018-Jul-06 11:30N 35°00' E 139°51'  
Track history (hours):
 
Tides and Currents Weather Stations Pressure Air Temp Water Temp Dewpoint Dewpoint Depression Visibility Wind Speed Wind Dir Waves Ship Positions

Kaiwo Maru (Japan)

Built in 1989. Trains merchant marine cadets for Japan's National Institute for Sea Training.

Ship's website: http://www.kohkun.go.jp/en/ships/kaiwomaru.html

Last reported at 2018-Jul-16 11:29 UTC. Time now 2018-Aug-14 07:04 UTC.
Position N 34°24' E 134°21'.
Warning: this ship's position is 28 days out of date.

Length 110.1 m; beam 13.8 m; draft 6 m.

Type: Sailing vessel. MMSI: 431006000.

Date/timePositionNaut miles runAvg speedWind from/ knotsBaromVisibWave heightAir tempDewpointWater temp
2018-Jul-16 11:29N 34°24' E 134°21'510.6
2018-Jul-16 11:00N 34°26' E 134°26'510.3
2018-Jul-16 10:31N 34°28' E 134°32'5 9.7
2018-Jul-16 10:01N 34°30' E 134°37'5 9.7
2018-Jul-16 09:28N 34°32' E 134°43'4 9.5
2018-Jul-16 09:00N 34°34' E 134°48'7 8.3
2018-Jul-16 08:09N 34°36' E 134°56'3 7.0
2018-Jul-16 07:43N 34°38' E 134°60'1 5.2
2018-Jul-16 07:27N 34°37' E 135°01'2 4.7
2018-Jul-16 06:58N 34°36' E 135°03'3 5.5
2018-Jul-16 06:30N 34°36' E 135°07'4 8.1
2018-Jul-16 06:00N 34°38' E 135°11'3 5.4
2018-Jul-16 05:30N 34°41' E 135°12'0 0.0
2018-Jul-16 04:50N 34°41' E 135°12'0 0.0
2018-Jul-16 04:20N 34°41' E 135°12'0 0.0
2018-Jul-16 03:56N 34°41' E 135°12'0 0.0
2018-Jul-16 03:26N 34°41' E 135°12'0 0.0
2018-Jul-16 02:56N 34°41' E 135°12'0 0.0
2018-Jul-16 02:26N 34°41' E 135°12'0 0.0
2018-Jul-16 01:56N 34°41' E 135°12'0 0.0
2018-Jul-16 01:20N 34°41' E 135°12'0 0.0
2018-Jul-16 00:56N 34°41' E 135°12'0 0.0
2018-Jul-16 00:26N 34°41' E 135°12'0 0.0
2018-Jul-15 23:50N 34°41' E 135°12'0 0.0
2018-Jul-15 23:08N 34°41' E 135°12'0 0.0
2018-Jul-15 22:50N 34°41' E 135°12'0 0.0
2018-Jul-15 22:26N 34°41' E 135°12'0 0.0
2018-Jul-15 21:56N 34°41' E 135°12'0 0.0
2018-Jul-15 20:38N 34°41' E 135°12'0 0.0
2018-Jul-15 20:20N 34°41' E 135°12'0 0.0
2018-Jul-15 19:56N 34°41' E 135°12'0 0.0
2018-Jul-15 19:26N 34°41' E 135°12'0 0.0
2018-Jul-15 18:56N 34°41' E 135°12'0 0.0
2018-Jul-15 18:26N 34°41' E 135°12'0 0.0
2018-Jul-15 17:56N 34°41' E 135°12'0 0.0
2018-Jul-15 17:26N 34°41' E 135°12'0 0.0
2018-Jul-15 16:56N 34°41' E 135°12'0 0.0
2018-Jul-15 15:56N 34°41' E 135°12'0 0.0
2018-Jul-15 15:26N 34°41' E 135°12'0 0.0
2018-Jul-15 14:44N 34°41' E 135°12'0 0.0
2018-Jul-15 14:20N 34°41' E 135°12'0 0.0
2018-Jul-15 13:50N 34°41' E 135°12'0 0.0
2018-Jul-15 13:26N 34°41' E 135°12'0 0.0
2018-Jul-15 12:50N 34°41' E 135°12'0 0.0
2018-Jul-15 12:26N 34°41' E 135°12'0 0.0
2018-Jul-15 11:56N 34°41' E 135°12'0 0.0
2018-Jul-15 11:14N 34°41' E 135°12'0 0.0
2018-Jul-15 10:56N 34°41' E 135°12'0 0.0
2018-Jul-15 10:20N 34°41' E 135°12'0 0.0
2018-Jul-15 09:56N 34°41' E 135°12'0 0.0
2018-Jul-15 09:20N 34°41' E 135°12'0 0.0
2018-Jul-15 08:50N 34°41' E 135°12'0 0.0
2018-Jul-15 08:26N 34°41' E 135°12'0 0.0
2018-Jul-15 07:56N 34°41' E 135°12'0 0.0
2018-Jul-15 07:20N 34°41' E 135°12'0 0.0
2018-Jul-15 06:56N 34°41' E 135°12'0 0.0
2018-Jul-15 06:26N 34°41' E 135°12'0 0.0
2018-Jul-15 05:56N 34°41' E 135°12'0 0.0
2018-Jul-15 05:14N 34°41' E 135°12'0 0.0
2018-Jul-15 04:50N 34°41' E 135°12'0 0.0
2018-Jul-15 04:20N 34°41' E 135°12'0 0.0
2018-Jul-15 03:56N 34°41' E 135°12'0 0.0
2018-Jul-15 03:14N 34°41' E 135°12'0 0.0
2018-Jul-15 02:56N 34°41' E 135°12'0 0.0
2018-Jul-15 02:20N 34°41' E 135°12'0 0.0
2018-Jul-15 01:56N 34°41' E 135°12'0 0.0
2018-Jul-15 01:26N 34°41' E 135°12'0 0.0
2018-Jul-15 00:56N 34°41' E 135°12'0 0.0
2018-Jul-15 00:26N 34°41' E 135°12'0 0.0
2018-Jul-14 23:56N 34°41' E 135°12'0 0.0
2018-Jul-14 23:26N 34°41' E 135°12'0 0.0
2018-Jul-14 22:56N 34°41' E 135°12'0 0.0
2018-Jul-14 22:26N 34°41' E 135°12'0 0.0
2018-Jul-14 21:56N 34°41' E 135°12'0 0.0
2018-Jul-14 21:26N 34°41' E 135°12'0 0.0
2018-Jul-14 20:50N 34°41' E 135°12'0 0.0
2018-Jul-14 20:26N 34°41' E 135°12'0 0.0
2018-Jul-14 19:56N 34°41' E 135°12'0 0.0
2018-Jul-14 19:26N 34°41' E 135°12'0 0.0
2018-Jul-14 18:56N 34°41' E 135°12'0 0.0
2018-Jul-14 18:14N 34°41' E 135°12'0 0.0
2018-Jul-14 17:56N 34°41' E 135°12'0 0.0
2018-Jul-14 17:26N 34°41' E 135°12'0 0.0
2018-Jul-14 16:56N 34°41' E 135°12'0 0.0
2018-Jul-14 16:20N 34°41' E 135°12'0 0.0
2018-Jul-14 15:56N 34°41' E 135°12'0 0.0
2018-Jul-14 15:26N 34°41' E 135°12'0 0.0
2018-Jul-14 14:50N 34°41' E 135°12'0 0.0
2018-Jul-14 14:26N 34°41' E 135°12'0 0.0
2018-Jul-14 13:26N 34°41' E 135°12'0 0.0
2018-Jul-14 12:56N 34°41' E 135°12'0 0.0
2018-Jul-14 12:14N 34°41' E 135°12'0 0.0
2018-Jul-14 11:56N 34°41' E 135°12'0 0.0
2018-Jul-14 11:26N 34°41' E 135°12'0 0.0
2018-Jul-14 10:50N 34°41' E 135°12'0 0.0
2018-Jul-14 10:20N 34°41' E 135°12'0 0.0
2018-Jul-14 09:50N 34°41' E 135°12'0 0.0
2018-Jul-14 09:26N 34°41' E 135°12'0 0.0
2018-Jul-14 08:56N 34°41' E 135°12'0 0.0
2018-Jul-14 08:20N 34°41' E 135°12'0 0.0
2018-Jul-14 07:56N 34°41' E 135°12'0 0.0
2018-Jul-14 07:26N 34°41' E 135°12'0 0.0
2018-Jul-14 06:56N 34°41' E 135°12'0 0.0
2018-Jul-14 06:02N 34°41' E 135°12'0 0.1
2018-Jul-14 05:56N 34°41' E 135°12'0 0.0
2018-Jul-14 05:14N 34°41' E 135°12'0 0.0
2018-Jul-14 04:56N 34°41' E 135°12'0 0.0
2018-Jul-14 04:02N 34°41' E 135°12'0 0.0
2018-Jul-14 03:56N 34°41' E 135°12'0 0.0
2018-Jul-14 03:26N 34°41' E 135°12'0 0.0
2018-Jul-14 02:50N 34°41' E 135°12'0 0.0
2018-Jul-14 02:20N 34°41' E 135°12'0 0.0
2018-Jul-14 01:56N 34°41' E 135°12'0 0.0
2018-Jul-14 01:26N 34°41' E 135°12'0 0.0
2018-Jul-14 00:08N 34°41' E 135°12'0 0.0
2018-Jul-13 23:50N 34°41' E 135°12'0 0.0
2018-Jul-13 23:26N 34°41' E 135°12'0 0.0
2018-Jul-13 22:56N 34°41' E 135°12'0 0.0
2018-Jul-13 22:26N 34°41' E 135°12'0 0.0
2018-Jul-13 21:50N 34°41' E 135°12'0 0.0
2018-Jul-13 21:26N 34°41' E 135°12'0 0.0
2018-Jul-13 20:56N 34°41' E 135°12'0 0.0
2018-Jul-13 20:26N 34°41' E 135°12'0 0.0
2018-Jul-13 19:44N 34°41' E 135°12'0 0.0
2018-Jul-13 19:26N 34°41' E 135°12'0 0.0
2018-Jul-13 18:56N 34°41' E 135°12'0 0.0
2018-Jul-13 18:20N 34°41' E 135°12'0 0.0
2018-Jul-13 17:56N 34°41' E 135°12'0 0.0
2018-Jul-13 17:20N 34°41' E 135°12'0 0.0
2018-Jul-13 16:56N 34°41' E 135°12'0 0.0
2018-Jul-13 16:26N 34°41' E 135°12'0 0.0
2018-Jul-13 15:56N 34°41' E 135°12'0 0.0
2018-Jul-13 15:20N 34°41' E 135°12'0 0.0
2018-Jul-13 14:56N 34°41' E 135°12'0 0.0
2018-Jul-13 13:50N 34°41' E 135°12'0 0.0
2018-Jul-13 13:26N 34°41' E 135°12'0 0.0
2018-Jul-13 12:56N 34°41' E 135°12'0 0.0
2018-Jul-13 12:26N 34°41' E 135°12'0 0.0
2018-Jul-13 11:56N 34°41' E 135°12'0 0.0
2018-Jul-13 11:26N 34°41' E 135°12'0 0.0
2018-Jul-13 10:50N 34°41' E 135°12'0 0.0
2018-Jul-13 10:20N 34°41' E 135°12'0 0.0
2018-Jul-13 09:56N 34°41' E 135°12'0 0.0
2018-Jul-13 09:20N 34°41' E 135°12'0 0.0
2018-Jul-13 08:56N 34°41' E 135°12'0 0.0
2018-Jul-13 08:26N 34°41' E 135°12'0 0.0
2018-Jul-13 07:56N 34°41' E 135°12'0 0.0
2018-Jul-13 07:20N 34°41' E 135°12'0 0.0
2018-Jul-13 06:56N 34°41' E 135°12'0 0.0
2018-Jul-13 06:26N 34°41' E 135°12'0 0.0
2018-Jul-13 05:50N 34°41' E 135°12'0 0.0
2018-Jul-13 05:20N 34°41' E 135°12'0 0.0
2018-Jul-13 04:56N 34°41' E 135°12'0 0.0
2018-Jul-13 04:26N 34°41' E 135°12'0 0.0
2018-Jul-13 03:50N 34°41' E 135°12'0 0.0
2018-Jul-13 03:26N 34°41' E 135°12'0 0.0
2018-Jul-13 02:56N 34°41' E 135°12'0 0.0
2018-Jul-13 02:26N 34°41' E 135°12'0 0.0
2018-Jul-13 01:56N 34°41' E 135°12'0 0.0
2018-Jul-13 01:26N 34°41' E 135°12'0 0.0
2018-Jul-13 00:50N 34°41' E 135°12'0 0.0
2018-Jul-13 00:26N 34°41' E 135°12'0 0.0
2018-Jul-12 23:50N 34°41' E 135°12'0 0.0
2018-Jul-12 23:20N 34°41' E 135°12'0 0.0
2018-Jul-12 22:50N 34°41' E 135°12'0 0.0
2018-Jul-12 22:20N 34°41' E 135°12'0 0.0
2018-Jul-12 21:44N 34°41' E 135°12'0 0.0
2018-Jul-12 21:26N 34°41' E 135°12'0 0.0
2018-Jul-12 20:56N 34°41' E 135°12'0 0.0
2018-Jul-12 20:26N 34°41' E 135°12'0 0.0
2018-Jul-12 19:56N 34°41' E 135°12'0 0.0
2018-Jul-12 19:26N 34°41' E 135°12'0 0.0
2018-Jul-12 18:56N 34°41' E 135°12'0 0.0
2018-Jul-12 18:26N 34°41' E 135°12'0 0.0
2018-Jul-12 17:44N 34°41' E 135°12'0 0.0
2018-Jul-12 17:26N 34°41' E 135°12'0 0.0
2018-Jul-12 16:56N 34°41' E 135°12'0 0.0
2018-Jul-12 16:20N 34°41' E 135°12'0 0.0
2018-Jul-12 15:38N 34°41' E 135°12'0 0.0
2018-Jul-12 15:20N 34°41' E 135°12'0 0.0
2018-Jul-12 14:56N 34°41' E 135°12'0 0.0
2018-Jul-12 14:26N 34°41' E 135°12'0 0.0
2018-Jul-12 13:50N 34°41' E 135°12'0 0.0
2018-Jul-12 13:20N 34°41' E 135°12'0 0.1
2018-Jul-12 12:50N 34°41' E 135°12'0 0.1
2018-Jul-12 12:26N 34°41' E 135°12'0 0.0
2018-Jul-12 11:56N 34°41' E 135°12'0 0.0
2018-Jul-12 11:26N 34°41' E 135°12'0 0.0
2018-Jul-12 10:56N 34°41' E 135°12'0 0.0
2018-Jul-12 10:26N 34°41' E 135°12'0 0.0
2018-Jul-12 09:56N 34°41' E 135°12'0 0.0
2018-Jul-12 09:26N 34°41' E 135°12'0 0.0
2018-Jul-12 08:50N 34°41' E 135°12'0 0.0
2018-Jul-12 08:26N 34°41' E 135°12'0 0.0
2018-Jul-12 07:44N 34°41' E 135°12'0 0.0
2018-Jul-12 07:26N 34°41' E 135°12'0 0.0
2018-Jul-12 06:56N 34°41' E 135°12'0 0.0
2018-Jul-12 06:26N 34°41' E 135°12'0 0.0
2018-Jul-12 05:56N 34°41' E 135°12'0 0.0
2018-Jul-12 05:20N 34°41' E 135°12'0 0.0
2018-Jul-12 04:50N 34°41' E 135°12'0 0.0
2018-Jul-12 04:26N 34°41' E 135°12'0 0.0
2018-Jul-12 03:50N 34°41' E 135°12'0 0.0
2018-Jul-12 03:26N 34°41' E 135°12'0 0.0
2018-Jul-12 02:44N 34°41' E 135°12'0 0.0
2018-Jul-12 02:20N 34°41' E 135°12'0 0.0
2018-Jul-12 01:44N 34°41' E 135°12'0 0.0
2018-Jul-12 01:20N 34°41' E 135°12'0 0.0
2018-Jul-12 00:56N 34°41' E 135°12'0 0.0
2018-Jul-12 00:26N 34°41' E 135°12'0 0.0
2018-Jul-11 23:56N 34°41' E 135°12'0 0.0
2018-Jul-11 22:44N 34°41' E 135°12'0 0.0
2018-Jul-11 22:26N 34°41' E 135°12'0 0.0
2018-Jul-11 21:50N 34°41' E 135°12'0 0.0
2018-Jul-11 21:26N 34°41' E 135°12'0 0.0
2018-Jul-11 20:56N 34°41' E 135°12'0 0.0
2018-Jul-11 20:20N 34°41' E 135°12'0 0.0
2018-Jul-11 19:56N 34°41' E 135°12'0 0.0
2018-Jul-11 19:26N 34°41' E 135°12'0 0.0
2018-Jul-11 18:56N 34°41' E 135°12'0 0.0
2018-Jul-11 18:26N 34°41' E 135°12'0 0.0
2018-Jul-11 17:56N 34°41' E 135°12'0 0.0
2018-Jul-11 17:20N 34°41' E 135°12'0 0.0
2018-Jul-11 16:50N 34°41' E 135°12'0 0.0
2018-Jul-11 16:26N 34°41' E 135°12'0 0.0
2018-Jul-11 15:56N 34°41' E 135°12'0 0.0
2018-Jul-11 15:20N 34°41' E 135°12'0 0.0
2018-Jul-11 14:56N 34°41' E 135°12'0 0.0
2018-Jul-11 14:26N 34°41' E 135°12'0 0.0
2018-Jul-11 13:50N 34°41' E 135°12'0 0.0
2018-Jul-11 13:26N 34°41' E 135°12'0 0.0
2018-Jul-11 12:56N 34°41' E 135°12'0 0.0
2018-Jul-11 12:26N 34°41' E 135°12'0 0.0
2018-Jul-11 11:50N 34°41' E 135°12'0 0.0
2018-Jul-11 11:26N 34°41' E 135°12'0 0.0
2018-Jul-11 10:50N 34°41' E 135°12'0 0.0
2018-Jul-11 10:14N 34°41' E 135°12'0 0.0
2018-Jul-11 09:56N 34°41' E 135°12'0 0.0
2018-Jul-11 09:14N 34°41' E 135°12'0 0.0
2018-Jul-11 08:56N 34°41' E 135°12'0 0.0
2018-Jul-11 08:26N 34°41' E 135°12'0 0.0
2018-Jul-11 07:50N 34°41' E 135°12'0 0.0
2018-Jul-11 07:14N 34°41' E 135°12'0 0.0
2018-Jul-11 06:56N 34°41' E 135°12'0 0.0
2018-Jul-11 06:20N 34°41' E 135°12'0 0.0
2018-Jul-11 05:56N 34°41' E 135°12'0 0.0
2018-Jul-11 05:26N 34°41' E 135°12'0 0.0
2018-Jul-11 04:56N 34°41' E 135°12'0 0.0
2018-Jul-11 04:29N 34°41' E 135°12'0 0.0
2018-Jul-11 03:59N 34°41' E 135°12'0 0.0
2018-Jul-11 03:23N 34°41' E 135°12'0 0.0
2018-Jul-11 02:53N 34°41' E 135°12'0 0.0
2018-Jul-11 02:17N 34°41' E 135°12'0 0.0
2018-Jul-11 01:59N 34°41' E 135°12'0 0.0
2018-Jul-11 01:29N 34°41' E 135°12'0 0.2
2018-Jul-11 01:00N 34°41' E 135°12'3 5.7
2018-Jul-11 00:30N 34°38' E 135°11'2 2.7
2018-Jul-10 23:57N 34°37' E 135°12'0 0.1
2018-Jul-10 23:15N 34°37' E 135°12'0 0.0
2018-Jul-10 22:57N 34°37' E 135°12'0 0.0
2018-Jul-10 21:33N 34°37' E 135°12'0 0.1
2018-Jul-10 21:27N 34°37' E 135°12'0 0.0
2018-Jul-10 20:51N 34°37' E 135°12'0 0.0
2018-Jul-10 20:09N 34°37' E 135°12'0 0.0
2018-Jul-10 19:57N 34°37' E 135°12'0 0.0
2018-Jul-10 19:27N 34°37' E 135°12'0 0.0
2018-Jul-10 18:51N 34°37' E 135°12'0 0.0
2018-Jul-10 18:27N 34°37' E 135°12'0 0.1
2018-Jul-10 17:45N 34°37' E 135°12'0 0.0
2018-Jul-10 17:27N 34°37' E 135°12'0 0.0
2018-Jul-10 17:00N 34°37' E 135°12'0 0.0
2018-Jul-10 16:27N 34°37' E 135°12'0 0.1
2018-Jul-10 15:57N 34°37' E 135°12'0 0.1
2018-Jul-10 15:27N 34°37' E 135°12'0 0.0
2018-Jul-10 14:57N 34°37' E 135°12'0 0.1
2018-Jul-10 14:27N 34°37' E 135°12'0 0.0
2018-Jul-10 13:57N 34°37' E 135°12'0 0.1
2018-Jul-10 13:09N 34°37' E 135°12'0 0.0
2018-Jul-10 13:00N 34°37' E 135°12'0 0.1
2018-Jul-10 12:30N 34°37' E 135°12'0 0.0
2018-Jul-10 11:57N 34°37' E 135°12'0 0.0
2018-Jul-10 11:15N 34°37' E 135°12'0 0.0
2018-Jul-10 10:57N 34°37' E 135°12'0 0.0
2018-Jul-10 10:30N 34°37' E 135°12'0 0.0
2018-Jul-10 10:00N 34°37' E 135°12'0 0.0
2018-Jul-10 09:30N 34°37' E 135°12'0 0.5
2018-Jul-10 09:00N 34°37' E 135°12'2 4.7
2018-Jul-10 08:30N 34°35' E 135°15'3 6.0
2018-Jul-10 08:00N 34°34' E 135°11'4 8.1
2018-Jul-10 07:31N 34°32' E 135°08'4 8.5
2018-Jul-10 07:01N 34°28' E 135°05'4 8.9
2018-Jul-10 06:31N 34°24' E 135°03'5 9.7
2018-Jul-10 06:01N 34°19' E 135°00'510.0
2018-Jul-10 05:31N 34°14' E 134°59'5 9.4
2018-Jul-10 05:01N 34°10' E 134°59'5 9.4
2018-Jul-10 04:31N 34°05' E 134°59'510.0
2018-Jul-10 04:00N 34°00' E 134°59'510.0
2018-Jul-10 03:31N 33°55' E 134°59'234 8.8
2018-Jul-09 00:55N 34°57' E 139°33'2 4.9
2018-Jul-09 00:30N 34°57' E 139°36'3 5.2
2018-Jul-09 00:00N 34°58' E 139°39'3 5.6
2018-Jul-08 23:30N 34°59' E 139°42'3 6.3
2018-Jul-08 23:00N 35°00' E 139°45'4 7.9
2018-Jul-08 22:30N 35°00' E 139°50'1 0.8
2018-Jul-08 21:45N 34°60' E 139°51'0 0.1
2018-Jul-08 21:09N 34°60' E 139°50'0 0.0
2018-Jul-08 20:21N 35°00' E 139°50'0 0.0
2018-Jul-08 19:57N 35°00' E 139°50'0 0.0
2018-Jul-08 19:27N 34°60' E 139°50'0 0.1
2018-Jul-08 18:57N 34°60' E 139°50'0 0.1
2018-Jul-08 18:27N 34°60' E 139°50'0 0.0
2018-Jul-08 17:57N 34°60' E 139°50'0 0.1
2018-Jul-08 17:21N 35°00' E 139°51'0 0.0
2018-Jul-08 16:21N 35°00' E 139°50'0 0.0
2018-Jul-08 15:57N 35°00' E 139°50'0 0.0
2018-Jul-08 15:27N 35°00' E 139°50'0 0.0
2018-Jul-08 14:57N 35°00' E 139°50'0 0.0
2018-Jul-08 14:27N 35°00' E 139°50'0 0.0
2018-Jul-08 13:57N 35°00' E 139°50'0 0.0
2018-Jul-08 13:27N 35°00' E 139°50'0 0.0
2018-Jul-08 12:51N 35°00' E 139°50'0 0.1
2018-Jul-08 12:27N 35°00' E 139°51'0 0.1
2018-Jul-08 11:57N 35°00' E 139°50'0 0.0
2018-Jul-08 11:27N 35°00' E 139°50'0 0.1
2018-Jul-08 10:45N 35°00' E 139°51'0 0.2
2018-Jul-08 10:27N 34°60' E 139°50'0 0.0
2018-Jul-08 09:57N 35°00' E 139°50'0 0.0
2018-Jul-08 09:27N 35°00' E 139°50'0 0.1
2018-Jul-08 08:57N 35°00' E 139°51'0 0.0
2018-Jul-08 08:27N 35°00' E 139°51'0 0.1
2018-Jul-08 07:51N 35°00' E 139°50'0 0.1
2018-Jul-08 07:27N 34°60' E 139°51'0 0.0
2018-Jul-08 06:57N 34°60' E 139°51'0 0.0
2018-Jul-08 06:27N 35°00' E 139°51'0 0.0
2018-Jul-08 05:09N 35°00' E 139°51'0 0.1
2018-Jul-08 04:57N 35°00' E 139°51'0 0.1
2018-Jul-08 04:27N 35°00' E 139°51'0 0.0
2018-Jul-08 03:33N 35°00' E 139°51'0 0.0
2018-Jul-08 03:15N 35°00' E 139°51'0 0.0
2018-Jul-08 02:51N 35°00' E 139°51'0 0.0
2018-Jul-08 02:27N 35°00' E 139°51'0 0.0
2018-Jul-08 01:51N 35°00' E 139°51'0 0.0
2018-Jul-08 01:27N 35°00' E 139°51'0 0.0
2018-Jul-08 00:57N 35°00' E 139°51'0 0.0
2018-Jul-08 00:21N 35°00' E 139°51'0 0.0
2018-Jul-07 23:57N 35°00' E 139°51'0 0.0
2018-Jul-07 23:27N 35°00' E 139°51'0 0.0
2018-Jul-07 22:57N 35°00' E 139°51'0 0.0
2018-Jul-07 22:27N 35°00' E 139°51'0 0.0
2018-Jul-07 21:51N 35°00' E 139°51'0 0.0
2018-Jul-07 21:27N 35°00' E 139°51'0 0.0
2018-Jul-07 20:57N 35°00' E 139°51'0 0.0
2018-Jul-07 20:27N 35°00' E 139°51'0 0.0
2018-Jul-07 19:57N 35°00' E 139°51'0 0.1
2018-Jul-07 19:27N 35°00' E 139°51'0 0.0
2018-Jul-07 18:51N 35°00' E 139°51'0 0.0
2018-Jul-07 18:09N 35°00' E 139°51'0 0.1
2018-Jul-07 17:57N 35°00' E 139°51'0 0.0
2018-Jul-07 17:27N 35°00' E 139°51'0 0.0
2018-Jul-07 16:57N 35°00' E 139°51'0 0.0
2018-Jul-07 16:21N 35°00' E 139°51'0 0.0
2018-Jul-07 15:57N 35°00' E 139°51'0 0.0
2018-Jul-07 14:45N 35°00' E 139°51'0 0.0
2018-Jul-07 14:27N 35°00' E 139°51'0 0.0
2018-Jul-07 13:57N 35°00' E 139°51'0 0.0
2018-Jul-07 12:33N 35°00' E 139°51'0 0.0
2018-Jul-07 12:27N 35°00' E 139°51'0 0.0
2018-Jul-07 11:57N 35°00' E 139°51'0 0.0
2018-Jul-07 11:27N 35°00' E 139°51'0 0.0
2018-Jul-07 10:51N 35°00' E 139°51'0 0.0
2018-Jul-07 07:39N 35°00' E 139°51'0 0.1
2018-Jul-07 07:12N 35°00' E 139°51'0 0.2
2018-Jul-07 07:00N 35°00' E 139°51'0 0.0
2018-Jul-07 06:31N 35°00' E 139°51'0 0.0
2018-Jul-07 06:01N 35°00' E 139°51'0 0.0
2018-Jul-07 05:31N 35°00' E 139°51'0 0.0
2018-Jul-07 05:00N 35°00' E 139°51'0 0.0
2018-Jul-07 04:31N 35°00' E 139°51'0 0.0
2018-Jul-07 04:01N 35°00' E 139°51'0 0.0
2018-Jul-07 03:31N 35°00' E 139°51'0 0.0
2018-Jul-07 03:01N 35°00' E 139°51'0 0.0
2018-Jul-07 02:30N 35°00' E 139°51'0 0.0
2018-Jul-07 02:00N 35°00' E 139°51'0 0.0
2018-Jul-07 01:30N 35°00' E 139°51'0 0.0
2018-Jul-07 01:01N 35°00' E 139°51'0 0.0
2018-Jul-07 00:31N 35°00' E 139°51'0 0.0
2018-Jul-07 00:01N 35°00' E 139°51'0 0.0
2018-Jul-06 23:31N 35°00' E 139°51'0 0.0
2018-Jul-06 23:00N 35°00' E 139°51'0 0.0
2018-Jul-06 22:30N 35°00' E 139°51'0 0.0
2018-Jul-06 22:01N 35°00' E 139°51'0 0.1
2018-Jul-06 21:31N 35°00' E 139°51'0 0.1
2018-Jul-06 21:01N 35°00' E 139°51'0 0.0
2018-Jul-06 20:31N 35°00' E 139°51'0 0.0
2018-Jul-06 20:00N 35°00' E 139°51'0 0.0
2018-Jul-06 19:31N 35°00' E 139°51'0 0.0
2018-Jul-06 19:00N 35°00' E 139°51'0 0.0
2018-Jul-06 18:31N 35°00' E 139°51'0 0.0
2018-Jul-06 18:01N 35°00' E 139°51'0 0.0
2018-Jul-06 17:30N 35°00' E 139°51'0 0.0
2018-Jul-06 17:01N 35°00' E 139°51'0 0.0
2018-Jul-06 16:31N 35°00' E 139°51'0 0.0
2018-Jul-06 16:01N 35°00' E 139°51'0 0.0
2018-Jul-06 15:30N 35°00' E 139°51'0 0.0
2018-Jul-06 15:01N 35°00' E 139°51'0 0.0
2018-Jul-06 14:30N 35°00' E 139°51'0 0.0
2018-Jul-06 14:00N 35°00' E 139°51'0 0.0
2018-Jul-06 13:30N 35°00' E 139°51'0 0.0
2018-Jul-06 13:00N 35°00' E 139°51'0 0.0
2018-Jul-06 12:30N 35°00' E 139°51'0 0.0
2018-Jul-06 12:00N 35°00' E 139°51'0 0.0
2018-Jul-06 11:30N 35°00' E 139°51'  

Dump ship's entire track history